createdAt,value
2023-04-20T00:02:17.610Z,99772.75
2023-04-20T00:04:51.979Z,99773.53
2023-04-20T00:07:27.656Z,99764.77
2023-04-20T00:10:01.335Z,99765.63
2023-04-20T00:12:36.068Z,99765.55
2023-04-20T00:15:11.364Z,99762.88
2023-04-20T00:17:46.795Z,99767.02
2023-04-20T00:20:20.382Z,99767.73
2023-04-20T00:22:53.984Z,99757.20
2023-04-20T00:25:27.823Z,99758.00
2023-04-20T00:28:01.424Z,99761.35
2023-04-20T00:30:35.036Z,99761.23
2023-04-20T00:33:09.713Z,99762.93
2023-04-20T00:35:43.486Z,99761.11
2023-04-20T00:38:16.791Z,99761.84
2023-04-20T00:40:51.610Z,99758.28
2023-04-20T00:43:26.029Z,99756.42
2023-04-20T00:45:59.846Z,99760.62
2023-04-20T00:48:33.765Z,99764.00
2023-04-20T00:51:07.797Z,99753.40
2023-04-20T00:53:42.512Z,99753.20
2023-04-20T00:56:17.151Z,99748.77
2023-04-20T00:58:50.896Z,99755.56
2023-04-20T01:01:24.588Z,99743.33
2023-04-20T01:03:58.400Z,99739.73
2023-04-20T01:06:34.396Z,99736.16
2023-04-20T01:09:08.040Z,99736.96
2023-04-20T01:11:41.927Z,99736.09
2023-04-20T01:14:15.616Z,99733.45
2023-04-20T01:16:49.860Z,99733.32
2023-04-20T01:19:23.493Z,99729.86
2023-04-20T01:21:57.133Z,99728.09
2023-04-20T01:24:30.424Z,99723.66
2023-04-20T01:27:04.745Z,99723.55
2023-04-20T01:29:40.650Z,99720.91
2023-04-20T01:32:15.769Z,99726.84
2023-04-20T01:34:49.093Z,99723.23
2023-04-20T01:37:22.710Z,99716.09
2023-04-20T01:39:56.432Z,99722.05
2023-04-20T01:42:30.025Z,99713.25
2023-04-20T01:45:03.520Z,99710.58
2023-04-20T01:47:38.433Z,99722.62
2023-04-20T01:50:13.502Z,99712.20
2023-04-20T01:52:47.013Z,99713.83
2023-04-20T01:55:23.092Z,99717.17
2023-04-20T01:57:59.319Z,99716.16
2023-04-20T02:00:33.221Z,99709.09
2023-04-20T02:03:06.996Z,99709.77
2023-04-20T02:05:40.684Z,99707.93
2023-04-20T02:08:14.281Z,99705.22
2023-04-20T02:10:47.861Z,99708.53
2023-04-20T02:13:21.631Z,99706.69
2023-04-20T02:15:55.651Z,99647.53
2023-04-20T02:18:30.273Z,99704.65
2023-04-20T02:21:04.083Z,99702.76
2023-04-20T02:23:37.839Z,99700.88
2023-04-20T02:26:11.643Z,99703.31
2023-04-20T02:28:46.339Z,99698.04
2023-04-20T02:31:20.040Z,99694.50
2023-04-20T02:33:53.601Z,99699.69
2023-04-20T02:36:27.174Z,99700.52
2023-04-20T02:39:00.826Z,99699.69
2023-04-20T02:41:34.259Z,99705.00
2023-04-20T02:44:08.512Z,99703.31
2023-04-20T02:46:44.955Z,99697.30
2023-04-20T02:49:19.333Z,99700.80
2023-04-20T02:51:53.077Z,99692.14
2023-04-20T02:54:26.480Z,99698.31
2023-04-20T02:57:00.219Z,99700.95
2023-04-20T02:59:34.706Z,99700.99
2023-04-20T03:02:12.970Z,99698.44
2023-04-20T03:04:47.176Z,99700.16
2023-04-20T03:07:22.840Z,99696.74
2023-04-20T03:09:57.328Z,99699.38
2023-04-20T03:12:41.647Z,99696.82
2023-04-20T03:15:17.256Z,99695.16
2023-04-20T03:17:55.253Z,99691.86
2023-04-20T03:20:28.830Z,99689.30
2023-04-20T03:23:02.498Z,99692.84
2023-04-20T03:25:36.415Z,99689.45
2023-04-20T03:28:11.607Z,99688.73
2023-04-20T03:30:46.350Z,99686.25
2023-04-20T03:33:21.636Z,99683.73
2023-04-20T03:35:55.318Z,99681.28
2023-04-20T03:38:29.641Z,99683.98
2023-04-20T03:41:03.314Z,99686.69
2023-04-20T03:43:36.790Z,99685.00
2023-04-20T03:46:10.409Z,99684.28
2023-04-20T03:48:44.146Z,99685.29
2023-04-20T03:51:18.326Z,99680.20
2023-04-20T03:53:52.604Z,99683.84
2023-04-20T03:56:28.780Z,99683.08
2023-04-20T03:59:03.393Z,99681.48
2023-04-20T04:01:39.189Z,99686.89
2023-04-20T04:04:13.335Z,99687.86
2023-04-20T04:06:47.109Z,99692.30
2023-04-20T04:09:20.643Z,99682.06
2023-04-20T04:11:54.309Z,99684.83
2023-04-20T04:14:31.047Z,99680.59
2023-04-20T04:17:04.674Z,99681.66
2023-04-20T04:19:39.315Z,99675.79
2023-04-20T04:22:13.088Z,99679.48
2023-04-20T04:24:48.943Z,99670.97
2023-04-20T04:27:29.146Z,99680.69
2023-04-20T04:30:03.361Z,99668.67
2023-04-20T04:32:38.479Z,99670.56
2023-04-20T04:35:12.741Z,99667.30
2023-04-20T04:37:47.705Z,99671.84
2023-04-20T04:40:21.641Z,99666.78
2023-04-20T04:42:56.809Z,99659.95
2023-04-20T04:45:31.456Z,99657.55
2023-04-20T04:48:08.163Z,99652.56
2023-04-20T04:50:41.022Z,99656.34
2023-04-20T04:53:14.503Z,99658.28
2023-04-20T04:55:48.636Z,99653.28
2023-04-20T04:58:22.186Z,99656.12
2023-04-20T05:00:55.807Z,99646.73
2023-04-20T05:03:29.440Z,99643.42
2023-04-20T05:06:03.102Z,99646.20
2023-04-20T05:08:36.609Z,99647.22
2023-04-20T05:11:10.482Z,99642.20
2023-04-20T05:13:43.708Z,99646.73
2023-04-20T05:16:17.236Z,99640.84
2023-04-20T05:18:50.596Z,99640.98
2023-04-20T05:21:24.043Z,99641.14
2023-04-20T05:23:57.555Z,99636.97
2023-04-20T05:26:31.247Z,99644.12
2023-04-20T05:29:04.799Z,99640.84
2023-04-20T05:31:38.413Z,99637.54
2023-04-20T05:34:12.147Z,99631.59
2023-04-20T05:36:46.144Z,99634.36
2023-04-20T05:39:20.122Z,99625.78
2023-04-20T05:41:53.985Z,99622.41
2023-04-20T05:44:27.296Z,99630.42
2023-04-20T05:47:00.817Z,99623.52
2023-04-20T05:49:33.386Z,99626.27
2023-04-20T05:52:06.960Z,99626.36
2023-04-20T05:54:40.752Z,99627.35
2023-04-20T05:57:14.442Z,99616.06
2023-04-20T05:59:48.187Z,99616.17
2023-04-20T06:02:21.808Z,99623.24
2023-04-20T06:04:55.242Z,99618.95
2023-04-20T06:07:28.703Z,99616.42
2023-04-20T06:10:02.823Z,99619.96
2023-04-20T06:12:38.277Z,99613.92
2023-04-20T06:15:14.983Z,99609.66
2023-04-20T06:23:35.184Z,99620.30
2023-04-20T06:26:09.776Z,99609.84
2023-04-20T06:28:43.504Z,99603.80
2023-04-20T06:31:17.322Z,99602.95
2023-04-20T06:33:57.030Z,99609.96
2023-04-20T06:36:31.302Z,99606.53
2023-04-20T06:39:05.239Z,99600.38
2023-04-20T06:41:39.473Z,99596.44
2023-04-20T06:44:12.858Z,99581.81
2023-04-20T06:46:47.347Z,99583.02
2023-04-20T06:49:21.002Z,99580.47
2023-04-20T06:51:54.607Z,99572.33
2023-04-20T06:54:28.100Z,99567.56
2023-04-20T06:57:01.725Z,99568.77
2023-04-20T06:59:37.836Z,99564.39
2023-04-20T07:02:11.470Z,99560.47
2023-04-20T07:04:44.978Z,99560.88
2023-04-20T07:07:18.703Z,99564.53
2023-04-20T07:09:52.286Z,99560.31
2023-04-20T07:12:25.778Z,99549.33
2023-04-20T07:14:59.363Z,99557.09
2023-04-20T07:17:35.006Z,99553.05
2023-04-20T07:20:11.285Z,99543.66
2023-04-20T07:22:44.888Z,99545.97
2023-04-20T07:25:18.390Z,99548.73
2023-04-20T07:27:52.018Z,99545.41
2023-04-20T07:30:27.947Z,99541.92
2023-04-20T07:33:01.414Z,99561.05
2023-04-20T07:35:35.235Z,99545.84
2023-04-20T07:38:08.981Z,99545.25
2023-04-20T07:40:42.516Z,99550.64
2023-04-20T07:43:16.287Z,99538.78
2023-04-20T07:45:50.264Z,99550.34
2023-04-20T07:48:24.006Z,99542.03
2023-04-20T07:50:57.385Z,99538.28
2023-04-20T07:53:32.512Z,99530.17
2023-04-20T07:56:24.881Z,99536.73
2023-04-20T07:58:58.365Z,99540.81
2023-04-20T08:01:32.358Z,99542.80
2023-04-20T08:04:06.869Z,99529.41
2023-04-20T08:06:40.749Z,99536.28
2023-04-20T08:09:14.826Z,99536.05
2023-04-20T08:11:48.706Z,99534.95
2023-04-20T08:14:22.551Z,99530.42
2023-04-20T08:16:55.740Z,99537.09
2023-04-20T08:19:29.114Z,99535.06
2023-04-20T08:22:03.469Z,99534.25
2023-04-20T08:24:37.201Z,99529.92
2023-04-20T08:27:14.294Z,99535.56
2023-04-20T08:29:47.959Z,99524.84
2023-04-20T08:32:23.205Z,99535.39
2023-04-20T08:35:21.560Z,99529.38
2023-04-20T08:38:02.056Z,99534.13
2023-04-20T08:40:37.688Z,99520.22
2023-04-20T08:43:11.430Z,99520.11
2023-04-20T08:45:47.573Z,99509.36
2023-04-20T08:48:23.072Z,99500.56
2023-04-20T08:51:06.393Z,99509.73
2023-04-20T08:53:50.044Z,99499.74
2023-04-20T08:57:04.020Z,99503.45
2023-04-20T08:59:41.846Z,99502.33
2023-04-20T09:02:17.527Z,99492.61
2023-04-20T09:04:53.218Z,99488.59
2023-04-20T09:07:27.074Z,99479.26
2023-04-20T09:10:02.168Z,99485.31
2023-04-20T09:12:44.778Z,99481.47
2023-04-20T09:15:29.334Z,99492.34
2023-04-20T09:18:04.166Z,99494.79
2023-04-20T09:20:37.711Z,99483.54
2023-04-20T09:23:17.792Z,99489.31
2023-04-20T09:25:53.890Z,99486.65
2023-04-20T09:28:28.858Z,99487.73
2023-04-20T09:31:02.393Z,99476.30
2023-04-20T09:33:37.969Z,99467.02
2023-04-20T09:36:11.908Z,99472.05
2023-04-20T09:38:45.114Z,99473.01
2023-04-20T09:41:19.690Z,99475.94
2023-04-20T09:43:53.334Z,99467.80
2023-04-20T09:46:28.593Z,99473.78
2023-04-20T09:49:02.645Z,99475.23
2023-04-20T09:51:38.606Z,99473.30
2023-04-20T09:54:14.507Z,99475.67
2023-04-20T09:56:50.067Z,99466.63
2023-04-20T09:59:25.719Z,99462.86
2023-04-20T10:01:59.393Z,99467.22
2023-04-20T10:04:33.134Z,99460.56
2023-04-20T10:07:08.120Z,99457.78
2023-04-20T10:09:41.800Z,99451.58
2023-04-20T10:12:15.151Z,99453.39
2023-04-20T10:14:58.021Z,99458.22
2023-04-20T10:17:38.799Z,99466.34
2023-04-20T10:20:25.490Z,99450.67
2023-04-20T10:23:09.735Z,99459.69
2023-04-20T10:25:46.824Z,99458.59
2023-04-20T10:28:21.942Z,99450.45
2023-04-20T10:30:56.538Z,99455.41
2023-04-20T10:33:30.214Z,99446.28
2023-04-20T10:36:03.820Z,99456.30
2023-04-20T10:38:38.397Z,99445.44
2023-04-20T10:41:12.565Z,99455.85
2023-04-20T10:43:46.077Z,99455.27
2023-04-20T10:46:21.678Z,99445.80
2023-04-20T10:49:01.034Z,99451.87
2023-04-20T10:51:34.216Z,99449.94
2023-04-20T10:54:09.364Z,99450.80
2023-04-20T10:56:44.823Z,99461.37
2023-04-20T10:59:20.922Z,99449.08
2023-04-20T11:02:14.466Z,99441.18
2023-04-20T11:04:46.934Z,99422.53
2023-04-20T11:07:32.369Z,99417.90
2023-04-20T11:10:17.175Z,99421.84
2023-04-20T11:12:51.252Z,99420.80
2023-04-20T11:15:33.743Z,99421.00
2023-04-20T11:18:12.237Z,99417.31
2023-04-20T11:20:54.456Z,99411.50
2023-04-20T11:23:29.421Z,99412.95
2023-04-20T11:28:56.754Z,99406.87
2023-04-20T11:31:30.550Z,99402.72
2023-04-20T11:34:05.970Z,99397.01
2023-04-20T11:36:40.880Z,99396.39
2023-04-20T11:39:14.668Z,99394.02
2023-04-20T11:41:49.302Z,99383.81
2023-04-20T11:44:23.158Z,99387.91
2023-04-20T11:46:58.405Z,99398.87
2023-04-20T11:49:33.813Z,99394.09
2023-04-20T11:52:08.255Z,99390.61
2023-04-20T11:54:41.974Z,99396.80
2023-04-20T11:57:16.276Z,99389.02
2023-04-20T11:59:49.744Z,99375.77
2023-04-20T12:02:25.649Z,99369.52
2023-04-20T12:05:01.001Z,99358.59
2023-04-20T12:07:34.673Z,99369.03
2023-04-20T12:10:13.010Z,99361.11
2023-04-20T12:12:46.378Z,99355.84
2023-04-20T12:15:20.074Z,99353.41
2023-04-20T12:17:53.723Z,99341.41
2023-04-20T12:20:27.615Z,99349.97
2023-04-20T12:23:02.078Z,99339.69
2023-04-20T12:25:35.815Z,99347.98
2023-04-20T12:28:09.534Z,99338.37
2023-04-20T12:30:43.523Z,99333.13
2023-04-20T12:33:17.551Z,99339.27
2023-04-20T12:35:50.867Z,99329.59
2023-04-20T12:38:24.694Z,99328.13
2023-04-20T12:40:58.667Z,99328.95
2023-04-20T12:43:32.522Z,99324.33
2023-04-20T12:46:06.170Z,99324.09
2023-04-20T12:48:56.756Z,99321.31
2023-04-20T12:51:33.576Z,99315.23
2023-04-20T12:54:07.689Z,99311.53
2023-04-20T12:56:41.076Z,99305.98
2023-04-20T12:59:14.718Z,99309.16
2023-04-20T13:01:48.157Z,99310.88
2023-04-20T13:04:22.883Z,99305.73
2023-04-20T13:06:56.815Z,99297.77
2023-04-20T13:09:30.070Z,99296.45
2023-04-20T13:12:03.702Z,99287.02
2023-04-20T13:14:37.449Z,99289.98
2023-04-20T13:17:11.041Z,99297.59
2023-04-20T13:19:44.927Z,99288.15
2023-04-20T13:22:19.219Z,99288.51
2023-04-20T13:24:53.049Z,99292.61
2023-04-20T13:27:26.730Z,99290.20
2023-04-20T13:30:04.524Z,99283.47
2023-04-20T13:32:38.927Z,99278.92
2023-04-20T13:35:14.958Z,99276.25
2023-04-20T13:37:48.864Z,99276.98
2023-04-20T13:40:22.066Z,99274.37
2023-04-20T13:42:55.572Z,99272.05
2023-04-20T13:45:29.887Z,99274.09
2023-04-20T13:48:03.581Z,99281.08
2023-04-20T13:50:37.144Z,99279.52
2023-04-20T13:53:10.735Z,99275.42
2023-04-20T13:55:44.203Z,99273.64
2023-04-20T13:58:17.706Z,99279.36
2023-04-20T14:00:51.481Z,99287.31
2023-04-20T14:03:26.639Z,99282.95
2023-04-20T14:06:00.625Z,99280.94
2023-04-20T14:08:34.327Z,99270.56
2023-04-20T14:11:08.384Z,99280.98
2023-04-20T14:13:42.247Z,99269.09
2023-04-20T14:16:16.419Z,99279.02
2023-04-20T14:18:49.968Z,99277.73
2023-04-20T14:21:23.711Z,99276.66
2023-04-20T14:23:57.763Z,99268.53
2023-04-20T14:26:31.299Z,99271.86
2023-04-20T14:29:05.985Z,99272.13
2023-04-20T14:31:42.904Z,99267.08
2023-04-20T14:34:16.888Z,99266.50
2023-04-20T14:36:50.900Z,99266.52
2023-04-20T14:39:24.613Z,99272.80
2023-04-20T14:41:58.233Z,99276.20
2023-04-20T14:44:31.966Z,99274.39
2023-04-20T14:47:05.802Z,99276.83
2023-04-20T14:49:39.473Z,99282.53
2023-04-20T14:52:15.996Z,99273.35
2023-04-20T14:54:49.736Z,99277.58
2023-04-20T14:57:23.319Z,99268.84
2023-04-20T15:00:00.475Z,99270.61
2023-04-20T15:02:35.842Z,99268.85
2023-04-20T15:05:11.865Z,99266.84
2023-04-20T15:07:49.167Z,99256.27
2023-04-20T15:10:25.554Z,99265.33
2023-04-20T15:13:02.128Z,99264.89
2023-04-20T15:15:48.370Z,99262.28
2023-04-20T15:18:20.307Z,99259.70
2023-04-20T15:20:54.528Z,99255.33
2023-04-20T15:23:28.248Z,99263.09
2023-04-20T15:26:01.705Z,99259.63
2023-04-20T15:28:35.319Z,99262.52
2023-04-20T15:31:10.162Z,99261.45
2023-04-20T15:33:44.857Z,99261.23
2023-04-20T15:36:20.678Z,99255.71
2023-04-20T15:38:56.054Z,99253.77
2023-04-20T15:41:29.639Z,99257.75
2023-04-20T15:44:03.302Z,99255.03
2023-04-20T15:46:39.348Z,99259.15
2023-04-20T15:49:13.695Z,99263.89
2023-04-20T15:51:56.573Z,99259.78
2023-04-20T15:54:33.664Z,99256.20
2023-04-20T15:57:19.422Z,99259.44
2023-04-20T16:00:01.607Z,99253.91
2023-04-20T16:02:41.301Z,99269.56
2023-04-20T16:05:18.101Z,99259.00
2023-04-20T16:08:01.446Z,99260.75
2023-04-20T16:10:39.630Z,99254.41
2023-04-20T16:13:12.476Z,99259.28
2023-04-20T16:15:46.808Z,99247.24
2023-04-20T16:18:25.973Z,99255.41
2023-04-20T16:21:01.828Z,99254.50
2023-04-20T16:23:39.133Z,99258.53
2023-04-20T16:26:12.460Z,99257.42
2023-04-20T16:28:46.958Z,99258.02
2023-04-20T16:31:23.573Z,99255.94
2023-04-20T16:34:01.567Z,99259.37
2023-04-20T16:36:35.954Z,99253.95
2023-04-20T16:39:11.135Z,99254.72
2023-04-20T16:41:44.878Z,99252.91
2023-04-20T16:44:18.787Z,99248.14
2023-04-20T16:46:58.497Z,99240.63
2023-04-20T16:49:32.125Z,99245.34
2023-04-20T16:52:05.905Z,99249.27
2023-04-20T16:54:39.097Z,99240.78
2023-04-20T16:57:12.779Z,99238.47
2023-04-20T16:59:46.424Z,99241.39
2023-04-20T17:02:23.166Z,99239.92
2023-04-20T17:04:57.231Z,99244.61
2023-04-20T17:07:31.350Z,99240.41
2023-04-20T17:10:05.721Z,99236.27
2023-04-20T17:12:41.551Z,99240.90
2023-04-20T17:15:15.697Z,99242.88
2023-04-20T17:17:49.303Z,99239.59
2023-04-20T17:20:25.973Z,99246.83
2023-04-20T17:23:02.030Z,99251.36
2023-04-20T17:28:18.154Z,99240.08
2023-04-20T17:30:51.773Z,99243.86
2023-04-20T17:33:33.437Z,99247.60
2023-04-20T17:36:08.101Z,99252.06
2023-04-20T17:38:43.381Z,99250.37
2023-04-20T17:41:17.026Z,99247.89
2023-04-20T17:46:51.100Z,99251.67
2023-04-20T17:49:28.670Z,99250.86
2023-04-20T17:52:03.129Z,99255.33
2023-04-20T17:54:51.430Z,99252.78
2023-04-20T17:57:26.374Z,99256.36
2023-04-20T18:00:00.450Z,99253.81
2023-04-20T18:02:35.736Z,99259.10
2023-04-20T18:05:13.330Z,99261.86
2023-04-20T18:07:49.728Z,99255.80
2023-04-20T18:10:36.187Z,99262.01
2023-04-20T18:13:23.669Z,99261.20
2023-04-20T18:16:01.823Z,99256.83
2023-04-20T18:18:35.799Z,99259.53
2023-04-20T18:21:10.089Z,99259.59
2023-04-20T18:23:43.992Z,99264.91
2023-04-20T18:26:18.770Z,99267.67
2023-04-20T18:28:55.031Z,99259.92
2023-04-20T18:31:31.533Z,99265.19
2023-04-20T18:34:09.613Z,99264.31
2023-04-20T18:36:44.180Z,99259.08
2023-04-20T18:39:17.993Z,99258.23
2023-04-20T18:41:52.286Z,99256.52
2023-04-20T18:44:27.744Z,99257.45
2023-04-20T18:47:01.711Z,99262.71
2023-04-20T18:49:35.531Z,99260.09
2023-04-20T18:52:09.645Z,99263.61
2023-04-20T18:54:47.535Z,99254.92
2023-04-20T18:57:23.327Z,99254.06
2023-04-20T18:59:58.826Z,99257.62
2023-04-20T19:02:32.959Z,99259.44
2023-04-20T19:05:08.088Z,99255.08
2023-04-20T19:07:41.898Z,99255.11
2023-04-20T19:10:16.055Z,99249.88
2023-04-20T19:12:50.062Z,99221.98
2023-04-20T19:15:25.958Z,99254.27
2023-04-20T19:17:59.457Z,99260.38
2023-04-20T19:20:33.319Z,99263.91
2023-04-20T19:23:07.129Z,99258.68
2023-04-20T19:25:41.295Z,99257.80
2023-04-20T19:28:15.000Z,99249.95
2023-04-20T19:30:48.736Z,99228.12
2023-04-20T19:33:24.161Z,99256.90
2023-04-20T19:35:58.096Z,99262.14
2023-04-20T19:38:34.692Z,99259.53
2023-04-20T19:41:09.260Z,99265.59
2023-04-20T19:43:43.167Z,99258.62
2023-04-20T19:46:17.140Z,99259.47
2023-04-20T19:48:51.131Z,99265.59
2023-04-20T19:51:25.672Z,99266.45
2023-04-20T19:53:59.939Z,99266.45
2023-04-20T19:56:33.766Z,99264.70
2023-04-20T19:59:08.014Z,99263.81
2023-04-20T20:01:41.964Z,99265.55
2023-04-20T20:04:17.494Z,99267.27
2023-04-20T20:06:54.679Z,99264.66
2023-04-20T20:09:29.076Z,99267.25
2023-04-20T20:12:04.930Z,99259.38
2023-04-20T20:14:38.442Z,99266.30
2023-04-20T20:17:13.593Z,99267.13
2023-04-20T20:19:47.416Z,99265.33
2023-04-20T20:22:21.495Z,99271.36
2023-04-20T20:24:54.885Z,99272.17
2023-04-20T20:27:28.893Z,99267.80
2023-04-20T20:30:02.414Z,99274.78
2023-04-20T20:32:36.692Z,99268.66
2023-04-20T20:35:13.161Z,99272.97
2023-04-20T20:37:47.703Z,99268.61
2023-04-20T20:40:21.693Z,99266.89
2023-04-20T20:42:55.338Z,99264.28
2023-04-20T20:45:29.240Z,99268.61
2023-04-20T20:48:03.957Z,99265.14
2023-04-20T20:50:38.078Z,99259.92
2023-04-20T20:53:17.744Z,99261.67
2023-04-20T20:55:51.396Z,99257.30
2023-04-20T20:58:25.237Z,99263.34
2023-04-20T21:00:59.206Z,99263.30
2023-04-20T21:03:33.324Z,99260.69
2023-04-20T21:06:08.170Z,99255.46
2023-04-20T21:08:42.327Z,99248.48
2023-04-20T21:11:16.008Z,99254.56
2023-04-20T21:13:49.684Z,99246.71
2023-04-20T21:16:23.580Z,99244.09
2023-04-20T21:18:57.409Z,99237.13
2023-04-20T21:21:32.533Z,99239.73
2023-04-20T21:24:06.695Z,99235.37
2023-04-20T21:26:40.275Z,99238.83
2023-04-20T21:29:14.084Z,99235.35
2023-04-20T21:31:48.120Z,99230.09
2023-04-20T21:34:21.799Z,99223.11
2023-04-20T21:36:55.598Z,99223.95
2023-04-20T21:39:29.287Z,99230.02
2023-04-20T21:42:03.385Z,99236.89
2023-04-20T21:44:37.032Z,99228.97
2023-04-20T21:47:10.859Z,99225.41
2023-04-20T21:49:44.634Z,99225.38
2023-04-20T21:52:18.207Z,99227.91
2023-04-20T21:54:53.767Z,99228.71
2023-04-20T21:57:27.388Z,99225.19
2023-04-20T22:00:01.035Z,99217.34
2023-04-20T22:02:35.983Z,99224.25
2023-04-20T22:05:11.594Z,99226.83
2023-04-20T22:07:45.948Z,99214.58
2023-04-20T22:10:19.328Z,99219.72
2023-04-20T22:12:56.263Z,99210.97
2023-04-20T22:15:29.884Z,99217.86
2023-04-20T22:18:04.143Z,99211.62
2023-04-20T22:20:38.301Z,99208.08
2023-04-20T22:23:11.822Z,99213.22
2023-04-20T22:25:45.680Z,99204.48
2023-04-20T22:28:19.320Z,99213.17
2023-04-20T22:30:52.953Z,99209.66
2023-04-20T22:33:26.697Z,99211.36
2023-04-20T22:36:00.300Z,99209.59
2023-04-20T22:38:35.964Z,99218.23
2023-04-20T22:41:09.672Z,99214.70
2023-04-20T22:43:43.241Z,99210.28
2023-04-20T22:46:16.658Z,99207.62
2023-04-20T22:48:51.121Z,99207.58
2023-04-20T22:51:24.791Z,99205.80
2023-04-20T22:54:00.240Z,99212.67
2023-04-20T22:56:35.251Z,99209.20
2023-04-20T22:59:11.913Z,99209.10
2023-04-20T23:01:45.976Z,99198.59
2023-04-20T23:04:19.833Z,99196.81
2023-04-20T23:06:55.168Z,99200.26
2023-04-20T23:09:29.269Z,99189.81
2023-04-20T23:12:03.608Z,99187.97
2023-04-20T23:14:37.861Z,99194.81
2023-04-20T23:17:11.754Z,99194.77
2023-04-20T23:19:46.030Z,99193.82
2023-04-20T23:22:19.687Z,99194.59
2023-04-20T23:24:53.471Z,99192.80
2023-04-20T23:27:27.109Z,99186.66
2023-04-20T23:30:00.683Z,99187.53
2023-04-20T23:32:35.696Z,99186.60
2023-04-20T23:35:13.508Z,99194.32
2023-04-20T23:37:47.120Z,99192.52
2023-04-20T23:40:20.854Z,99190.77
2023-04-20T23:42:55.213Z,99191.59
2023-04-20T23:45:29.906Z,99179.38
2023-04-20T23:48:03.666Z,99183.66
2023-04-20T23:50:37.841Z,99175.80
2023-04-20T23:53:11.574Z,99177.49
2023-04-20T23:55:48.409Z,99179.16
2023-04-20T23:58:23.965Z,99176.52
